createdAt,value
2019-02-11T00:01:21.431Z,0.50
2019-02-11T00:03:59.220Z,0.60
2019-02-11T00:06:24.073Z,0.80
2019-02-11T00:08:54.476Z,0.70
2019-02-11T00:11:24.873Z,0.80
2019-02-11T00:13:55.263Z,0.70
2019-02-11T00:16:25.678Z,0.77
2019-02-11T00:18:56.323Z,0.60
2019-02-11T00:21:26.758Z,0.83
2019-02-11T00:23:57.190Z,0.73
2019-02-11T00:26:27.610Z,0.63
2019-02-11T00:28:58.022Z,0.70
2019-02-11T00:31:28.781Z,0.90
2019-02-11T00:33:59.153Z,0.80
2019-02-11T00:36:29.638Z,0.67
2019-02-11T00:39:00.000Z,0.70
2019-02-11T00:41:30.641Z,0.70
2019-02-11T00:44:01.113Z,0.63
2019-02-11T00:46:31.587Z,0.90
2019-02-11T00:49:02.145Z,1.20
2019-02-11T00:51:32.545Z,0.77
2019-02-11T00:54:03.001Z,0.80
2019-02-11T00:56:33.431Z,0.70
2019-02-11T00:59:03.817Z,0.60
2019-02-11T01:01:34.339Z,0.70
2019-02-11T01:04:04.776Z,0.60
2019-02-11T01:06:35.220Z,0.80
2019-02-11T01:09:06.754Z,0.67
2019-02-11T01:11:37.150Z,0.70
2019-02-11T01:14:07.599Z,0.90
2019-02-11T01:16:38.053Z,0.60
2019-02-11T01:19:08.465Z,0.70
2019-02-11T01:21:38.911Z,0.60
2019-02-11T01:24:09.373Z,0.60
2019-02-11T01:26:39.824Z,0.60
2019-02-11T01:29:10.247Z,0.70
2019-02-11T01:31:40.701Z,0.60
2019-02-11T01:34:11.096Z,0.50
2019-02-11T01:36:41.539Z,0.57
2019-02-11T01:39:11.979Z,0.70
2019-02-11T01:41:42.381Z,0.53
2019-02-11T01:44:12.828Z,0.60
2019-02-11T01:46:43.278Z,0.50
2019-02-11T01:49:13.794Z,0.60
2019-02-11T01:51:44.183Z,0.53
2019-02-11T01:54:14.616Z,0.50
2019-02-11T01:56:45.062Z,0.70
2019-02-11T01:59:15.510Z,0.50
2019-02-11T02:01:45.906Z,0.53
2019-02-11T02:04:16.321Z,0.70
2019-02-11T02:06:46.746Z,0.57
2019-02-11T02:09:17.226Z,0.50
2019-02-11T02:11:47.666Z,0.60
2019-02-11T02:14:18.095Z,0.50
2019-02-11T02:16:48.508Z,0.50
2019-02-11T02:19:18.947Z,0.50
2019-02-11T02:21:49.396Z,0.50
2019-02-11T02:24:19.835Z,0.50
2019-02-11T02:26:50.288Z,0.60
2019-02-11T02:29:20.710Z,0.40
2019-02-11T02:31:51.152Z,0.60
2019-02-11T02:34:21.589Z,0.40
2019-02-11T02:36:52.110Z,0.50
2019-02-11T02:39:22.576Z,0.50
2019-02-11T02:41:52.974Z,0.47
2019-02-11T02:44:23.414Z,0.60
2019-02-11T02:46:53.877Z,0.50
2019-02-11T02:49:24.281Z,0.40
2019-02-11T02:51:54.746Z,0.80
2019-02-11T02:54:25.156Z,0.57
2019-02-11T02:56:55.573Z,0.50
2019-02-11T02:59:25.975Z,0.70
2019-02-11T03:01:56.416Z,0.77
2019-02-11T03:04:26.850Z,0.40
2019-02-11T03:06:57.269Z,0.50
2019-02-11T03:09:27.664Z,0.50
2019-02-11T03:11:58.095Z,0.50
2019-02-11T03:14:28.615Z,0.57
2019-02-11T03:16:59.012Z,0.50
2019-02-11T03:19:29.461Z,0.50
2019-02-11T03:21:59.931Z,0.60
2019-02-11T03:24:30.365Z,0.60
2019-02-11T03:27:01.018Z,0.50
2019-02-11T03:29:31.778Z,0.53
2019-02-11T03:32:02.396Z,0.50
2019-02-11T03:34:32.900Z,0.50
2019-02-11T03:37:03.338Z,0.50
2019-02-11T03:39:33.758Z,0.50
2019-02-11T03:42:04.388Z,0.40
2019-02-11T03:44:34.965Z,0.50
2019-02-11T03:47:05.412Z,0.50
2019-02-11T03:49:35.790Z,0.53
2019-02-11T03:52:06.220Z,0.60
2019-02-11T03:54:36.674Z,0.67
2019-02-11T03:57:07.105Z,0.60
2019-02-11T03:59:37.502Z,0.63
2019-02-11T04:02:07.926Z,0.70
2019-02-11T04:04:38.539Z,0.77
2019-02-11T04:07:08.950Z,0.80
2019-02-11T04:09:39.440Z,0.70
2019-02-11T04:12:09.885Z,0.70
2019-02-11T04:14:40.504Z,1.10
2019-02-11T04:17:10.903Z,0.80
2019-02-11T04:19:41.326Z,1.77
2019-02-11T04:22:12.141Z,1.00
2019-02-11T04:24:42.565Z,0.80
2019-02-11T04:27:12.997Z,0.90
2019-02-11T04:29:43.393Z,0.73
2019-02-11T04:32:13.804Z,0.63
2019-02-11T04:34:44.226Z,1.23
2019-02-11T04:37:14.646Z,0.90
2019-02-11T04:39:45.071Z,0.90
2019-02-11T04:42:15.502Z,0.90
2019-02-11T04:44:45.936Z,1.27
2019-02-11T04:47:16.381Z,0.80
2019-02-11T04:49:46.766Z,1.10
2019-02-11T04:52:17.220Z,1.00
2019-02-11T04:54:47.638Z,1.20
2019-02-11T04:57:18.082Z,1.43
2019-02-11T04:59:48.496Z,0.80
2019-02-11T05:02:18.901Z,0.90
2019-02-11T05:04:49.304Z,1.27
2019-02-11T05:07:19.740Z,1.10
2019-02-11T05:09:50.399Z,1.10
2019-02-11T05:12:20.986Z,1.00
2019-02-11T05:14:51.453Z,1.40
2019-02-11T05:17:21.837Z,1.43
2019-02-11T05:19:52.256Z,1.00
2019-02-11T05:22:22.762Z,0.70
2019-02-11T05:24:53.193Z,0.93
2019-02-11T05:27:23.630Z,0.80
2019-02-11T05:29:54.081Z,0.83
2019-02-11T05:32:24.529Z,1.30
2019-02-11T05:34:54.988Z,0.90
2019-02-11T05:37:25.427Z,1.17
2019-02-11T05:39:55.840Z,1.50
2019-02-11T05:42:26.240Z,1.23
2019-02-11T05:44:56.667Z,1.50
2019-02-11T05:47:27.094Z,1.37
2019-02-11T05:49:57.870Z,1.27
2019-02-11T05:52:28.328Z,1.60
2019-02-11T05:54:58.726Z,2.03
2019-02-11T05:57:29.165Z,1.70
2019-02-11T05:59:59.929Z,1.43
2019-02-11T06:02:30.396Z,1.90
2019-02-11T06:05:00.811Z,1.77
2019-02-11T06:07:31.219Z,1.97
2019-02-11T06:10:01.678Z,1.80
2019-02-11T06:12:32.098Z,1.90
2019-02-11T06:15:04.250Z,2.20
2019-02-11T06:17:34.819Z,1.90
2019-02-11T06:20:05.867Z,2.90
2019-02-11T06:22:36.354Z,2.63
2019-02-11T06:25:07.157Z,2.67
2019-02-11T06:27:37.733Z,2.30
2019-02-11T06:30:09.208Z,2.80
2019-02-11T06:32:39.644Z,2.30
2019-02-11T06:35:10.741Z,2.53
2019-02-11T06:37:41.195Z,2.57
2019-02-11T06:40:12.833Z,2.60
2019-02-11T06:42:43.265Z,2.20
2019-02-11T06:45:13.702Z,2.60
2019-02-11T06:47:44.076Z,3.20
2019-02-11T06:50:15.050Z,2.17
2019-02-11T06:52:45.477Z,2.60
2019-02-11T06:55:15.924Z,2.30
2019-02-11T06:57:46.344Z,2.90
2019-02-11T07:00:17.109Z,2.43
2019-02-11T07:02:47.571Z,2.93
2019-02-11T07:05:17.984Z,2.40
2019-02-11T07:07:48.461Z,2.00
2019-02-11T07:10:18.888Z,2.40
2019-02-11T07:12:49.289Z,2.07
2019-02-11T07:15:22.213Z,3.00
2019-02-11T07:17:51.863Z,2.47
2019-02-11T07:20:22.301Z,2.93
2019-02-11T07:22:53.671Z,2.93
2019-02-11T07:25:24.065Z,2.87
2019-02-11T07:27:54.704Z,2.40
2019-02-11T07:30:25.169Z,2.80
2019-02-11T07:32:55.604Z,2.07
2019-02-11T07:35:26.043Z,2.30
2019-02-11T07:37:56.452Z,2.90
2019-02-11T07:40:29.594Z,2.50
2019-02-11T07:43:09.043Z,2.37
2019-02-11T07:46:00.625Z,2.07
2019-02-11T07:48:31.051Z,2.47
2019-02-11T07:51:01.726Z,2.27
2019-02-11T07:53:32.290Z,3.37
2019-02-11T07:56:02.753Z,2.57
2019-02-11T07:58:33.191Z,2.20
2019-02-11T08:01:03.724Z,2.60
2019-02-11T08:03:34.166Z,2.20
2019-02-11T08:06:04.552Z,2.20
2019-02-11T08:08:34.957Z,2.13
2019-02-11T08:11:06.144Z,3.33
2019-02-11T08:13:36.605Z,2.17
2019-02-11T08:16:07.002Z,2.27
2019-02-11T08:18:37.465Z,2.53
2019-02-11T08:21:07.901Z,2.50
2019-02-11T08:23:38.346Z,3.03
2019-02-11T08:26:08.835Z,2.07
2019-02-11T08:28:39.271Z,2.13
2019-02-11T08:31:09.929Z,2.23
2019-02-11T08:33:40.485Z,1.70
2019-02-11T08:36:10.908Z,2.17
2019-02-11T08:38:41.341Z,2.30
2019-02-11T08:41:11.783Z,1.63
2019-02-11T08:43:42.196Z,2.40
2019-02-11T08:46:12.636Z,1.47
2019-02-11T08:48:43.051Z,1.23
2019-02-11T08:51:14.445Z,1.67
2019-02-11T08:53:44.894Z,2.10
2019-02-11T08:56:15.348Z,1.73
2019-02-11T08:58:45.775Z,1.97
2019-02-11T09:01:16.174Z,1.47
2019-02-11T09:03:46.778Z,1.60
2019-02-11T09:06:18.066Z,1.90
2019-02-11T09:08:48.579Z,1.70
2019-02-11T09:11:18.982Z,2.00
2019-02-11T09:13:51.259Z,2.00
2019-02-11T09:16:21.686Z,2.27
2019-02-11T09:18:52.130Z,1.50
2019-02-11T09:21:22.530Z,1.70
2019-02-11T09:23:52.948Z,1.67
2019-02-11T09:26:23.390Z,1.67
2019-02-11T09:28:53.845Z,1.27
2019-02-11T09:31:24.322Z,1.70
2019-02-11T09:33:54.842Z,1.53
2019-02-11T09:36:25.321Z,1.57
2019-02-11T09:38:55.747Z,1.40
2019-02-11T09:41:26.183Z,1.40
2019-02-11T09:43:56.637Z,1.80
2019-02-11T09:46:27.073Z,2.00
2019-02-11T09:48:57.479Z,2.23
2019-02-11T09:51:29.218Z,1.73
2019-02-11T09:53:59.683Z,2.30
2019-02-11T09:56:30.192Z,2.03
2019-02-11T09:59:00.634Z,1.30
2019-02-11T10:01:31.088Z,1.10
2019-02-11T10:04:01.659Z,1.80
2019-02-11T10:06:32.139Z,0.93
2019-02-11T10:09:03.003Z,1.93
2019-02-11T10:11:33.421Z,1.50
2019-02-11T10:14:03.951Z,1.47
2019-02-11T10:16:34.403Z,1.30
2019-02-11T10:19:04.867Z,2.20
2019-02-11T10:21:35.895Z,1.10
2019-02-11T10:24:06.322Z,1.80
2019-02-11T10:26:36.786Z,1.80
2019-02-11T10:29:07.170Z,1.30
2019-02-11T10:31:37.717Z,2.20
2019-02-11T10:34:08.232Z,1.90
2019-02-11T10:36:38.677Z,2.17
2019-02-11T10:39:09.133Z,1.73
2019-02-11T10:41:39.566Z,1.20
2019-02-11T10:44:10.077Z,1.10
2019-02-11T10:46:40.496Z,1.67
2019-02-11T10:49:10.937Z,1.87
2019-02-11T10:51:41.368Z,1.77
2019-02-11T10:54:11.970Z,1.43
2019-02-11T10:56:42.428Z,1.50
2019-02-11T10:59:12.913Z,1.80
2019-02-11T11:01:43.344Z,1.13
2019-02-11T11:04:13.915Z,1.53
2019-02-11T11:06:44.367Z,1.80
2019-02-11T11:09:16.362Z,1.40
2019-02-11T11:11:46.782Z,1.50
2019-02-11T11:14:17.317Z,1.00
2019-02-11T11:16:47.766Z,1.77
2019-02-11T11:19:18.209Z,1.67
2019-02-11T11:21:48.681Z,2.50
2019-02-11T11:24:19.119Z,1.93
2019-02-11T11:26:49.553Z,1.10
2019-02-11T11:29:20.003Z,1.57
2019-02-11T11:31:50.490Z,1.00
2019-02-11T11:34:20.920Z,1.40
2019-02-11T11:36:51.345Z,1.33
2019-02-11T11:39:26.275Z,1.50
2019-02-11T11:41:56.714Z,1.70
2019-02-11T11:44:27.167Z,1.93
2019-02-11T11:46:57.620Z,1.37
2019-02-11T11:49:28.057Z,1.73
2019-02-11T11:51:58.476Z,1.33
2019-02-11T11:54:28.882Z,1.50
2019-02-11T11:56:59.569Z,1.20
2019-02-11T11:59:30.117Z,1.77
2019-02-11T12:02:00.547Z,1.57
2019-02-11T12:04:30.949Z,1.77
2019-02-11T12:07:01.406Z,2.30
2019-02-11T12:09:31.852Z,1.70
2019-02-11T12:12:02.311Z,1.67
2019-02-11T12:14:32.742Z,1.90
2019-02-11T12:17:03.638Z,1.80
2019-02-11T12:19:34.145Z,1.33
2019-02-11T12:22:04.783Z,1.20
2019-02-11T12:24:35.220Z,1.43
2019-02-11T12:27:05.732Z,1.37
2019-02-11T12:29:36.166Z,1.63
2019-02-11T12:32:06.601Z,1.50
2019-02-11T12:34:37.085Z,1.07
2019-02-11T12:37:09.464Z,0.97
2019-02-11T12:39:39.824Z,1.23
2019-02-11T12:42:10.266Z,1.70
2019-02-11T12:44:40.722Z,2.17
2019-02-11T12:47:14.668Z,1.00
2019-02-11T12:49:43.341Z,1.50
2019-02-11T12:52:13.819Z,1.10
2019-02-11T12:54:44.214Z,1.37
2019-02-11T12:57:14.830Z,0.93
2019-02-11T12:59:45.485Z,1.60
2019-02-11T13:02:15.933Z,1.07
2019-02-11T13:04:46.407Z,1.30
2019-02-11T13:07:16.858Z,1.60
2019-02-11T13:09:47.315Z,1.53
2019-02-11T13:12:17.899Z,1.37
2019-02-11T13:14:48.333Z,1.47
2019-02-11T13:17:33.485Z,1.47
2019-02-11T13:20:07.496Z,1.10
2019-02-11T13:22:23.347Z,1.30
2019-02-11T13:24:53.847Z,1.17
2019-02-11T13:27:24.288Z,0.90
2019-02-11T13:29:54.730Z,1.10
2019-02-11T13:32:25.215Z,1.20
2019-02-11T13:34:55.670Z,1.10
2019-02-11T13:37:28.214Z,1.53
2019-02-11T13:39:58.659Z,0.90
2019-02-11T13:42:29.123Z,1.10
2019-02-11T13:45:01.677Z,1.77
2019-02-11T13:47:50.444Z,1.30
2019-02-11T13:50:04.582Z,0.97
2019-02-11T13:52:35.041Z,0.90
2019-02-11T13:55:05.790Z,1.13
2019-02-11T13:57:36.221Z,1.10
2019-02-11T14:00:27.035Z,1.33
2019-02-11T14:02:58.229Z,1.37
2019-02-11T14:05:29.401Z,1.13
2019-02-11T14:08:02.000Z,0.97
2019-02-11T14:10:32.807Z,1.00
2019-02-11T14:13:03.509Z,0.80
2019-02-11T14:15:34.459Z,1.40
2019-02-11T14:18:14.694Z,1.30
2019-02-11T14:20:49.658Z,1.00
2019-02-11T14:23:17.310Z,1.30
2019-02-11T14:25:48.014Z,1.50
2019-02-11T14:28:18.470Z,1.20
2019-02-11T14:30:48.960Z,0.90
2019-02-11T14:33:19.436Z,1.37
2019-02-11T14:35:49.919Z,1.33
2019-02-11T14:38:20.508Z,1.43
2019-02-11T14:40:51.083Z,1.77
2019-02-11T14:43:23.380Z,3.93
2019-02-11T14:45:53.864Z,2.63
2019-02-11T14:48:28.420Z,0.93
2019-02-11T14:50:56.526Z,1.07
2019-02-11T14:53:26.945Z,1.70
2019-02-11T14:55:57.396Z,2.60
2019-02-11T14:58:27.906Z,3.00
2019-02-11T15:00:58.346Z,1.30
2019-02-11T15:03:29.055Z,1.97
2019-02-11T15:05:59.898Z,1.50
2019-02-11T15:08:30.332Z,1.43
2019-02-11T15:11:00.784Z,1.20
2019-02-11T15:13:31.229Z,3.17
2019-02-11T15:16:01.656Z,1.40
2019-02-11T15:18:34.235Z,1.30
2019-02-11T15:21:04.274Z,2.00
2019-02-11T15:23:34.910Z,1.50
2019-02-11T15:26:05.423Z,0.97
2019-02-11T15:28:35.865Z,0.93
2019-02-11T15:31:06.290Z,1.20
2019-02-11T15:33:36.758Z,1.10
2019-02-11T15:36:07.208Z,0.87
2019-02-11T15:38:37.676Z,1.77
2019-02-11T15:41:08.114Z,1.03
2019-02-11T15:43:38.515Z,1.53
2019-02-11T15:46:09.033Z,1.30
2019-02-11T15:48:43.116Z,1.37
2019-02-11T15:51:11.646Z,1.30
2019-02-11T15:53:42.130Z,1.20
2019-02-11T15:56:12.580Z,1.17
2019-02-11T15:58:42.995Z,1.20
2019-02-11T16:01:13.400Z,1.00
2019-02-11T16:03:43.876Z,1.43
2019-02-11T16:06:14.299Z,1.80
2019-02-11T16:08:44.837Z,1.53
2019-02-11T16:11:15.328Z,1.00
2019-02-11T16:13:45.867Z,2.30
2019-02-11T16:16:16.270Z,1.33
2019-02-11T16:18:51.781Z,1.87
2019-02-11T16:21:18.951Z,2.00
2019-02-11T16:23:49.395Z,1.40
2019-02-11T16:26:20.094Z,1.40
2019-02-11T16:28:50.659Z,1.90
2019-02-11T16:31:21.088Z,1.80
2019-02-11T16:33:51.642Z,2.00
2019-02-11T16:36:22.388Z,1.77
2019-02-11T16:38:53.392Z,2.20
2019-02-11T16:41:23.809Z,2.27
2019-02-11T16:43:54.253Z,1.97
2019-02-11T16:46:24.731Z,2.47
2019-02-11T16:49:00.411Z,1.93
2019-02-11T16:51:27.362Z,1.80
2019-02-11T16:53:57.772Z,1.90
2019-02-11T16:56:28.241Z,2.23
2019-02-11T16:58:58.750Z,2.53
2019-02-11T17:01:29.271Z,2.47
2019-02-11T17:03:59.691Z,1.73
2019-02-11T17:06:30.412Z,2.20
2019-02-11T17:09:01.292Z,2.10
2019-02-11T17:11:31.782Z,2.43
2019-02-11T17:14:02.295Z,2.63
2019-02-11T17:16:32.767Z,2.47
2019-02-11T17:19:09.088Z,2.70
2019-02-11T17:21:35.747Z,2.33
2019-02-11T17:24:06.189Z,1.67
2019-02-11T17:26:36.733Z,2.70
2019-02-11T17:29:07.187Z,2.67
2019-02-11T17:31:37.670Z,2.07
2019-02-11T17:34:08.175Z,2.17
2019-02-11T17:36:38.739Z,2.73
2019-02-11T17:39:10.917Z,2.03
2019-02-11T17:41:41.599Z,2.40
2019-02-11T17:44:13.391Z,2.40
2019-02-11T17:46:43.984Z,2.97
2019-02-11T17:49:17.735Z,3.42
2019-02-11T17:51:46.813Z,4.17
2019-02-11T17:54:17.714Z,3.03
2019-02-11T17:56:48.275Z,2.50
2019-02-11T17:59:18.815Z,2.57
2019-02-11T18:01:49.389Z,2.63
2019-02-11T18:04:19.868Z,2.53
2019-02-11T18:06:50.388Z,2.10
2019-02-11T18:09:20.848Z,2.30
2019-02-11T18:11:51.640Z,2.70
2019-02-11T18:14:22.165Z,2.93
2019-02-11T18:16:52.914Z,2.33
2019-02-11T18:19:26.279Z,2.37
2019-02-11T18:21:56.406Z,2.67
2019-02-11T18:24:26.877Z,2.50
2019-02-11T18:26:57.466Z,2.13
2019-02-11T18:29:28.038Z,1.97
2019-02-11T18:31:58.650Z,2.63
2019-02-11T18:34:29.282Z,2.90
2019-02-11T18:36:59.812Z,2.70
2019-02-11T18:39:30.240Z,2.50
2019-02-11T18:42:00.996Z,3.20
2019-02-11T18:44:31.847Z,2.73
2019-02-11T18:47:02.393Z,2.70
2019-02-11T18:49:34.525Z,2.60
2019-02-11T18:52:06.419Z,1.83
2019-02-11T18:54:36.968Z,3.10
2019-02-11T18:57:07.623Z,3.50
2019-02-11T18:59:38.426Z,3.20
2019-02-11T19:02:09.138Z,2.80
2019-02-11T19:04:39.782Z,3.30
2019-02-11T19:07:10.509Z,3.07
2019-02-11T19:09:41.162Z,2.80
2019-02-11T19:12:11.862Z,2.67
2019-02-11T19:14:42.387Z,3.20
2019-02-11T19:17:13.073Z,2.80
2019-02-11T19:19:43.688Z,2.70
2019-02-11T19:22:14.205Z,3.13
2019-02-11T19:24:44.796Z,2.60
2019-02-11T19:27:15.313Z,2.37
2019-02-11T19:29:46.247Z,2.87
2019-02-11T19:32:16.807Z,2.77
2019-02-11T19:34:47.305Z,1.93
2019-02-11T19:37:17.855Z,2.07
2019-02-11T19:39:48.597Z,2.43
2019-02-11T19:42:19.176Z,3.10
2019-02-11T19:44:49.791Z,2.67
2019-02-11T19:47:20.313Z,2.73
2019-02-11T19:49:52.084Z,2.27
2019-02-11T19:52:22.742Z,2.10
2019-02-11T19:54:53.269Z,2.20
2019-02-11T19:57:23.802Z,2.47
2019-02-11T19:59:54.439Z,1.80
2019-02-11T20:02:25.017Z,2.10
2019-02-11T20:04:55.455Z,2.13
2019-02-11T20:07:26.243Z,1.70
2019-02-11T20:09:56.743Z,2.03
2019-02-11T20:12:27.436Z,1.93
2019-02-11T20:14:58.358Z,1.80
2019-02-11T20:17:29.107Z,2.50
2019-02-11T20:20:00.595Z,1.67
2019-02-11T20:22:31.531Z,2.23
2019-02-11T20:25:02.389Z,1.40
2019-02-11T20:27:33.256Z,1.93
2019-02-11T20:30:04.079Z,1.60
2019-02-11T20:32:34.604Z,1.57
2019-02-11T20:35:05.628Z,2.70
2019-02-11T20:37:36.409Z,2.13
2019-02-11T20:40:08.355Z,1.90
2019-02-11T20:42:39.099Z,1.63
2019-02-11T20:45:20.007Z,1.80
2019-02-11T20:47:50.755Z,2.20
2019-02-11T20:50:21.416Z,2.57
2019-02-11T20:52:52.460Z,5.40
2019-02-11T20:55:23.038Z,5.40
2019-02-11T20:57:56.094Z,4.80
2019-02-11T21:00:26.763Z,4.57
2019-02-11T21:02:57.225Z,3.80
2019-02-11T21:05:27.898Z,2.03
2019-02-11T21:07:58.363Z,2.70
2019-02-11T21:10:28.843Z,3.37
2019-02-11T21:12:59.289Z,2.40
2019-02-11T21:15:29.802Z,2.37
2019-02-11T21:18:00.263Z,2.37
2019-02-11T21:20:34.681Z,2.50
2019-02-11T21:23:07.328Z,2.70
2019-02-11T21:25:37.799Z,1.80
2019-02-11T21:28:08.466Z,2.20
2019-02-11T21:30:39.198Z,2.97
2019-02-11T21:33:09.661Z,2.67
2019-02-11T21:35:40.133Z,2.97
2019-02-11T21:38:10.636Z,2.50
2019-02-11T21:40:41.186Z,1.40
2019-02-11T21:43:11.658Z,2.23
2019-02-11T21:45:42.226Z,1.50
2019-02-11T21:48:13.840Z,1.40
2019-02-11T21:50:44.356Z,1.87
2019-02-11T21:53:14.979Z,1.90
2019-02-11T21:55:45.381Z,2.20
2019-02-11T21:58:15.935Z,1.97
2019-02-11T22:00:46.400Z,2.50
2019-02-11T22:03:16.836Z,2.07
2019-02-11T22:05:47.331Z,2.00
2019-02-11T22:08:17.785Z,1.83
2019-02-11T22:10:48.194Z,2.03
2019-02-11T22:13:18.661Z,2.23
2019-02-11T22:15:49.109Z,2.50
2019-02-11T22:18:19.800Z,3.30
2019-02-11T22:20:50.233Z,1.83
2019-02-11T22:23:20.678Z,2.53
2019-02-11T22:25:51.159Z,2.27
2019-02-11T22:28:21.602Z,2.20
2019-02-11T22:30:52.055Z,2.43
2019-02-11T22:33:22.497Z,1.87
2019-02-11T22:35:53.083Z,2.00
2019-02-11T22:38:23.854Z,2.10
2019-02-11T22:40:54.327Z,2.30
2019-02-11T22:43:24.979Z,2.20
2019-02-11T22:45:55.415Z,1.97
2019-02-11T22:48:25.909Z,1.93
2019-02-11T22:50:56.423Z,4.20
2019-02-11T22:53:26.885Z,2.33
2019-02-11T22:55:57.303Z,2.87
2019-02-11T22:58:28.134Z,3.00
2019-02-11T23:01:08.759Z,2.40
2019-02-11T23:03:39.755Z,2.37
2019-02-11T23:06:10.205Z,2.03
2019-02-11T23:08:40.593Z,3.10
2019-02-11T23:11:11.007Z,2.10
2019-02-11T23:13:41.487Z,2.10
2019-02-11T23:16:12.113Z,3.97
2019-02-11T23:18:42.572Z,2.40
2019-02-11T23:21:13.007Z,2.73
2019-02-11T23:23:43.743Z,3.67
2019-02-11T23:26:14.210Z,3.10
2019-02-11T23:28:45.599Z,3.47
2019-02-11T23:31:16.158Z,3.40
2019-02-11T23:33:46.597Z,3.57
2019-02-11T23:36:17.012Z,3.10
2019-02-11T23:38:47.494Z,3.43
2019-02-11T23:41:17.934Z,3.40
2019-02-11T23:43:48.373Z,2.63
2019-02-11T23:46:18.910Z,2.87
2019-02-11T23:48:49.363Z,2.00
2019-02-11T23:51:19.800Z,3.30
2019-02-11T23:53:50.254Z,2.27
2019-02-11T23:56:20.642Z,2.20
2019-02-11T23:58:51.106Z,3.33
